Bosham, United Kingdom
Current Conditions -  °F | °C
As of 4:20 PM on Saturday 22 Nov 2014 (Local Time) from EGHI Reporting Station
Light Rain Light Rain  
Wind Chill: 55°   Ceiling: 1300
Heat Index: 55°   Visibility: 4mi
Dew Point: 55°   Wind: 3mph
Humidity: 100%   Direction: NA
Pressure: 29.91"   Gusts: NA
Location:  50.83°N, 0.85°W
Report Text: EGHI 221620Z VRB03KT 6000 -RADZ FEW004 SCT006 BKN013 13/13 Q1013
Loading
Personal Weather Stations






























Interactive Weather Map New forecast layout! Learn more

10-Day Weather Forecast

Advertisements
Track Severe Weather on mobile